Terminal Aerodrome Forecast
Issued by NWS

Home | Current Version | Previous Version | Text Only | Print | Product List | Glossary On
Versions: 1 2 3 4 5 6 7 8 9 10 11 12 13 14
658
FTUS44 KJAN 292320
TAFGTR
TAF
KGTR 292320Z 3000/3024 33004KT P6SM BKN060
     FM301200 34005KT P6SM BKN025
     FM301800 31006KT P6SM BKN035=

USA.gov is the U.S. government's official web portal to all federal, state and local government web resources and services.